sensor_id;sensor_type;location;lat;lon;timestamp;P1;durP1;ratioP1;P2;durP2;ratioP2
8161;SDS011;16778;48.154;15.094;2023-04-25T00:00:24;1.43;;;1.13;;
8161;SDS011;16778;48.154;15.094;2023-04-25T00:02:50;1.60;;;0.60;;
8161;SDS011;16778;48.154;15.094;2023-04-25T00:05:16;0.90;;;0.63;;
8161;SDS011;16778;48.154;15.094;2023-04-25T00:07:42;0.80;;;0.80;;
8161;SDS011;16778;48.154;15.094;2023-04-25T00:10:08;1.20;;;0.90;;
8161;SDS011;16778;48.154;15.094;2023-04-25T00:12:36;0.70;;;0.70;;
8161;SDS011;16778;48.154;15.094;2023-04-25T00:15:01;0.70;;;0.70;;
8161;SDS011;16778;48.154;15.094;2023-04-25T00:17:28;2.37;;;0.80;;
8161;SDS011;16778;48.154;15.094;2023-04-25T00:19:54;1.27;;;0.60;;
8161;SDS011;16778;48.154;15.094;2023-04-25T00:22:21;1.60;;;0.70;;
8161;SDS011;16778;48.154;15.094;2023-04-25T00:24:46;0.70;;;0.70;;
8161;SDS011;16778;48.154;15.094;2023-04-25T00:27:15;1.07;;;0.70;;
8161;SDS011;16778;48.154;15.094;2023-04-25T00:29:40;0.73;;;0.73;;
8161;SDS011;16778;48.154;15.094;2023-04-25T00:32:06;1.50;;;0.93;;
8161;SDS011;16778;48.154;15.094;2023-04-25T00:34:32;3.17;;;0.90;;
8161;SDS011;16778;48.154;15.094;2023-04-25T00:36:57;0.90;;;0.60;;
8161;SDS011;16778;48.154;15.094;2023-04-25T00:39:23;0.60;;;0.60;;
8161;SDS011;16778;48.154;15.094;2023-04-25T00:41:49;0.77;;;0.60;;
8161;SDS011;16778;48.154;15.094;2023-04-25T00:44:18;0.90;;;0.50;;
8161;SDS011;16778;48.154;15.094;2023-04-25T00:46:44;0.53;;;0.53;;
8161;SDS011;16778;48.154;15.094;2023-04-25T00:49:09;1.77;;;0.93;;
8161;SDS011;16778;48.154;15.094;2023-04-25T00:51:40;1.33;;;0.90;;
8161;SDS011;16778;48.154;15.094;2023-04-25T00:54:06;0.83;;;0.67;;
8161;SDS011;16778;48.154;15.094;2023-04-25T00:56:31;0.43;;;0.43;;
8161;SDS011;16778;48.154;15.094;2023-04-25T00:58:57;1.33;;;0.70;;
8161;SDS011;16778;48.154;15.094;2023-04-25T01:01:23;1.20;;;0.70;;
8161;SDS011;16778;48.154;15.094;2023-04-25T01:03:49;0.83;;;0.80;;
8161;SDS011;16778;48.154;15.094;2023-04-25T01:06:16;0.80;;;0.60;;
8161;SDS011;16778;48.154;15.094;2023-04-25T01:08:41;0.80;;;0.80;;
8161;SDS011;16778;48.154;15.094;2023-04-25T01:11:07;0.80;;;0.53;;
8161;SDS011;16778;48.154;15.094;2023-04-25T01:13:34;1.07;;;0.93;;
8161;SDS011;16778;48.154;15.094;2023-04-25T01:16:00;0.90;;;0.70;;
8161;SDS011;16778;48.154;15.094;2023-04-25T01:18:26;1.70;;;0.80;;
8161;SDS011;16778;48.154;15.094;2023-04-25T01:20:52;0.90;;;0.67;;
8161;SDS011;16778;48.154;15.094;2023-04-25T01:23:20;0.60;;;0.60;;
8161;SDS011;16778;48.154;15.094;2023-04-25T01:25:46;1.83;;;0.73;;
8161;SDS011;16778;48.154;15.094;2023-04-25T01:28:13;0.63;;;0.60;;
8161;SDS011;16778;48.154;15.094;2023-04-25T01:30:38;0.60;;;0.50;;
8161;SDS011;16778;48.154;15.094;2023-04-25T01:33:04;0.67;;;0.60;;
8161;SDS011;16778;48.154;15.094;2023-04-25T01:35:31;0.60;;;0.60;;
8161;SDS011;16778;48.154;15.094;2023-04-25T01:37:57;0.93;;;0.77;;
8161;SDS011;16778;48.154;15.094;2023-04-25T01:40:23;3.63;;;0.67;;
8161;SDS011;16778;48.154;15.094;2023-04-25T01:42:50;1.03;;;0.90;;
8161;SDS011;16778;48.154;15.094;2023-04-25T01:45:16;1.37;;;1.00;;
8161;SDS011;16778;48.154;15.094;2023-04-25T01:47:42;0.70;;;0.70;;
8161;SDS011;16778;48.154;15.094;2023-04-25T01:50:11;0.63;;;0.63;;
8161;SDS011;16778;48.154;15.094;2023-04-25T01:52:38;0.90;;;0.70;;
8161;SDS011;16778;48.154;15.094;2023-04-25T01:55:03;1.57;;;0.80;;
8161;SDS011;16778;48.154;15.094;2023-04-25T01:57:30;0.43;;;0.43;;
8161;SDS011;16778;48.154;15.094;2023-04-25T02:00:00;1.83;;;0.90;;
8161;SDS011;16778;48.154;15.094;2023-04-25T02:02:27;0.53;;;0.53;;
8161;SDS011;16778;48.154;15.094;2023-04-25T02:04:53;2.10;;;0.80;;
8161;SDS011;16778;48.154;15.094;2023-04-25T02:07:21;0.80;;;0.70;;
8161;SDS011;16778;48.154;15.094;2023-04-25T02:09:47;1.33;;;0.67;;
8161;SDS011;16778;48.154;15.094;2023-04-25T02:12:13;0.87;;;0.87;;
8161;SDS011;16778;48.154;15.094;2023-04-25T02:14:39;0.50;;;0.50;;
8161;SDS011;16778;48.154;15.094;2023-04-25T02:17:04;1.33;;;0.93;;
8161;SDS011;16778;48.154;15.094;2023-04-25T02:19:30;1.83;;;0.70;;
8161;SDS011;16778;48.154;15.094;2023-04-25T02:21:56;1.50;;;0.77;;
8161;SDS011;16778;48.154;15.094;2023-04-25T02:24:23;0.87;;;0.77;;
8161;SDS011;16778;48.154;15.094;2023-04-25T02:26:48;0.80;;;0.67;;
8161;SDS011;16778;48.154;15.094;2023-04-25T02:29:14;1.37;;;1.03;;
8161;SDS011;16778;48.154;15.094;2023-04-25T02:31:40;2.90;;;1.10;;
8161;SDS011;16778;48.154;15.094;2023-04-25T02:34:06;0.80;;;0.60;;
8161;SDS011;16778;48.154;15.094;2023-04-25T02:36:31;0.90;;;0.73;;
8161;SDS011;16778;48.154;15.094;2023-04-25T02:38:59;0.80;;;0.60;;
8161;SDS011;16778;48.154;15.094;2023-04-25T02:41:25;0.70;;;0.50;;
8161;SDS011;16778;48.154;15.094;2023-04-25T02:43:51;0.50;;;0.50;;
8161;SDS011;16778;48.154;15.094;2023-04-25T02:46:17;3.10;;;1.00;;
8161;SDS011;16778;48.154;15.094;2023-04-25T02:48:43;1.47;;;0.60;;
8161;SDS011;16778;48.154;15.094;2023-04-25T02:51:08;0.87;;;0.70;;
8161;SDS011;16778;48.154;15.094;2023-04-25T02:53:34;0.87;;;0.87;;
8161;SDS011;16778;48.154;15.094;2023-04-25T02:56:00;2.40;;;0.93;;
8161;SDS011;16778;48.154;15.094;2023-04-25T02:58:26;1.00;;;0.80;;
8161;SDS011;16778;48.154;15.094;2023-04-25T03:00:52;0.90;;;0.60;;
8161;SDS011;16778;48.154;15.094;2023-04-25T03:03:17;1.37;;;0.57;;
8161;SDS011;16778;48.154;15.094;2023-04-25T03:05:46;0.80;;;0.80;;
8161;SDS011;16778;48.154;15.094;2023-04-25T03:08:13;0.47;;;0.43;;
8161;SDS011;16778;48.154;15.094;2023-04-25T03:10:39;0.70;;;0.70;;
8161;SDS011;16778;48.154;15.094;2023-04-25T03:13:05;0.60;;;0.60;;
8161;SDS011;16778;48.154;15.094;2023-04-25T03:15:30;0.40;;;0.40;;
8161;SDS011;16778;48.154;15.094;2023-04-25T03:17:56;1.53;;;0.97;;
8161;SDS011;16778;48.154;15.094;2023-04-25T03:20:22;0.50;;;0.40;;
8161;SDS011;16778;48.154;15.094;2023-04-25T03:22:47;0.90;;;0.60;;
8161;SDS011;16778;48.154;15.094;2023-04-25T03:25:13;0.53;;;0.50;;
8161;SDS011;16778;48.154;15.094;2023-04-25T03:27:39;0.93;;;0.40;;
8161;SDS011;16778;48.154;15.094;2023-04-25T03:30:05;0.70;;;0.53;;
8161;SDS011;16778;48.154;15.094;2023-04-25T03:32:31;1.20;;;0.50;;
8161;SDS011;16778;48.154;15.094;2023-04-25T03:34:57;1.13;;;0.80;;
8161;SDS011;16778;48.154;15.094;2023-04-25T03:37:22;0.67;;;0.50;;
8161;SDS011;16778;48.154;15.094;2023-04-25T03:39:48;0.70;;;0.43;;
8161;SDS011;16778;48.154;15.094;2023-04-25T03:42:14;0.50;;;0.50;;
8161;SDS011;16778;48.154;15.094;2023-04-25T03:44:39;0.83;;;0.60;;
8161;SDS011;16778;48.154;15.094;2023-04-25T03:47:05;0.60;;;0.60;;
8161;SDS011;16778;48.154;15.094;2023-04-25T03:49:31;1.70;;;0.80;;
8161;SDS011;16778;48.154;15.094;2023-04-25T03:51:59;0.87;;;0.70;;
8161;SDS011;16778;48.154;15.094;2023-04-25T03:54:25;0.77;;;0.67;;
8161;SDS011;16778;48.154;15.094;2023-04-25T03:56:51;1.10;;;1.00;;
8161;SDS011;16778;48.154;15.094;2023-04-25T03:59:16;0.93;;;0.90;;
8161;SDS011;16778;48.154;15.094;2023-04-25T04:01:42;0.53;;;0.53;;
8161;SDS011;16778;48.154;15.094;2023-04-25T04:04:07;0.63;;;0.63;;
8161;SDS011;16778;48.154;15.094;2023-04-25T04:06:33;0.40;;;0.40;;
8161;SDS011;16778;48.154;15.094;2023-04-25T04:08:59;0.50;;;0.43;;
8161;SDS011;16778;48.154;15.094;2023-04-25T04:11:25;1.83;;;0.70;;
8161;SDS011;16778;48.154;15.094;2023-04-25T04:13:51;1.47;;;0.70;;
8161;SDS011;16778;48.154;15.094;2023-04-25T04:16:16;1.03;;;0.70;;
8161;SDS011;16778;48.154;15.094;2023-04-25T04:18:42;0.60;;;0.60;;
8161;SDS011;16778;48.154;15.094;2023-04-25T04:21:07;0.67;;;0.63;;
8161;SDS011;16778;48.154;15.094;2023-04-25T04:23:33;1.20;;;0.80;;
8161;SDS011;16778;48.154;15.094;2023-04-25T04:25:59;2.77;;;0.93;;
8161;SDS011;16778;48.154;15.094;2023-04-25T04:28:25;2.17;;;0.57;;
8161;SDS011;16778;48.154;15.094;2023-04-25T04:30:51;0.47;;;0.47;;
8161;SDS011;16778;48.154;15.094;2023-04-25T04:33:17;1.63;;;0.70;;
8161;SDS011;16778;48.154;15.094;2023-04-25T04:35:46;4.37;;;1.53;;
8161;SDS011;16778;48.154;15.094;2023-04-25T04:38:12;1.90;;;0.90;;
8161;SDS011;16778;48.154;15.094;2023-04-25T04:40:40;1.43;;;0.83;;
8161;SDS011;16778;48.154;15.094;2023-04-25T04:43:08;1.60;;;1.30;;
8161;SDS011;16778;48.154;15.094;2023-04-25T04:45:35;1.57;;;0.73;;
8161;SDS011;16778;48.154;15.094;2023-04-25T04:48:05;2.67;;;1.10;;
8161;SDS011;16778;48.154;15.094;2023-04-25T04:50:31;1.10;;;1.00;;
8161;SDS011;16778;48.154;15.094;2023-04-25T04:52:57;0.73;;;0.70;;
8161;SDS011;16778;48.154;15.094;2023-04-25T04:55:23;0.50;;;0.50;;
8161;SDS011;16778;48.154;15.094;2023-04-25T04:57:49;2.43;;;0.83;;
8161;SDS011;16778;48.154;15.094;2023-04-25T05:00:15;0.60;;;0.60;;
8161;SDS011;16778;48.154;15.094;2023-04-25T05:02:41;1.13;;;0.83;;
8161;SDS011;16778;48.154;15.094;2023-04-25T05:05:07;1.00;;;0.90;;
8161;SDS011;16778;48.154;15.094;2023-04-25T05:07:33;1.77;;;0.93;;
8161;SDS011;16778;48.154;15.094;2023-04-25T05:09:58;1.63;;;1.10;;
8161;SDS011;16778;48.154;15.094;2023-04-25T05:12:24;2.33;;;1.70;;
8161;SDS011;16778;48.154;15.094;2023-04-25T05:14:50;1.20;;;1.10;;
8161;SDS011;16778;48.154;15.094;2023-04-25T05:17:15;1.87;;;1.73;;
8161;SDS011;16778;48.154;15.094;2023-04-25T05:19:41;1.43;;;1.13;;
8161;SDS011;16778;48.154;15.094;2023-04-25T05:22:07;2.27;;;1.40;;
8161;SDS011;16778;48.154;15.094;2023-04-25T05:24:35;2.37;;;1.40;;
8161;SDS011;16778;48.154;15.094;2023-04-25T05:27:01;2.43;;;1.10;;
8161;SDS011;16778;48.154;15.094;2023-04-25T05:29:27;1.27;;;0.93;;
8161;SDS011;16778;48.154;15.094;2023-04-25T05:31:53;1.20;;;0.90;;
8161;SDS011;16778;48.154;15.094;2023-04-25T05:34:18;1.70;;;0.97;;
8161;SDS011;16778;48.154;15.094;2023-04-25T05:36:44;2.37;;;1.10;;
8161;SDS011;16778;48.154;15.094;2023-04-25T05:39:13;1.93;;;1.33;;
8161;SDS011;16778;48.154;15.094;2023-04-25T05:41:39;1.30;;;1.17;;
8161;SDS011;16778;48.154;15.094;2023-04-25T05:44:05;3.97;;;1.27;;
8161;SDS011;16778;48.154;15.094;2023-04-25T05:46:31;1.87;;;1.23;;
8161;SDS011;16778;48.154;15.094;2023-04-25T05:48:56;2.23;;;1.20;;
8161;SDS011;16778;48.154;15.094;2023-04-25T05:51:22;3.17;;;1.07;;
8161;SDS011;16778;48.154;15.094;2023-04-25T05:53:47;1.17;;;0.80;;
8161;SDS011;16778;48.154;15.094;2023-04-25T05:56:13;2.50;;;0.87;;
8161;SDS011;16778;48.154;15.094;2023-04-25T05:58:39;2.70;;;1.20;;
8161;SDS011;16778;48.154;15.094;2023-04-25T06:01:05;2.80;;;1.47;;
8161;SDS011;16778;48.154;15.094;2023-04-25T06:03:30;1.73;;;0.93;;
8161;SDS011;16778;48.154;15.094;2023-04-25T06:05:56;1.63;;;1.00;;
8161;SDS011;16778;48.154;15.094;2023-04-25T06:08:21;1.63;;;1.23;;
8161;SDS011;16778;48.154;15.094;2023-04-25T06:10:47;2.43;;;1.17;;
8161;SDS011;16778;48.154;15.094;2023-04-25T06:13:13;1.60;;;1.20;;
8161;SDS011;16778;48.154;15.094;2023-04-25T06:15:40;1.43;;;1.00;;
8161;SDS011;16778;48.154;15.094;2023-04-25T06:18:06;1.23;;;0.93;;
8161;SDS011;16778;48.154;15.094;2023-04-25T06:20:32;2.00;;;1.10;;
8161;SDS011;16778;48.154;15.094;2023-04-25T06:22:57;1.73;;;0.93;;
8161;SDS011;16778;48.154;15.094;2023-04-25T06:25:23;1.13;;;0.90;;
8161;SDS011;16778;48.154;15.094;2023-04-25T06:27:49;1.00;;;0.90;;
8161;SDS011;16778;48.154;15.094;2023-04-25T06:30:14;2.83;;;1.13;;
8161;SDS011;16778;48.154;15.094;2023-04-25T06:32:41;3.37;;;1.20;;
8161;SDS011;16778;48.154;15.094;2023-04-25T06:35:07;2.23;;;1.00;;
8161;SDS011;16778;48.154;15.094;2023-04-25T06:37:33;2.27;;;1.43;;
8161;SDS011;16778;48.154;15.094;2023-04-25T06:39:58;2.13;;;1.20;;
8161;SDS011;16778;48.154;15.094;2023-04-25T06:42:24;1.37;;;1.23;;
8161;SDS011;16778;48.154;15.094;2023-04-25T06:44:50;1.10;;;0.90;;
8161;SDS011;16778;48.154;15.094;2023-04-25T06:47:15;1.27;;;1.10;;
8161;SDS011;16778;48.154;15.094;2023-04-25T06:49:41;1.00;;;0.93;;
8161;SDS011;16778;48.154;15.094;2023-04-25T06:52:07;1.70;;;1.20;;
8161;SDS011;16778;48.154;15.094;2023-04-25T06:54:33;2.27;;;1.07;;
8161;SDS011;16778;48.154;15.094;2023-04-25T06:56:59;1.07;;;0.97;;
8161;SDS011;16778;48.154;15.094;2023-04-25T06:59:25;0.83;;;0.80;;
8161;SDS011;16778;48.154;15.094;2023-04-25T07:01:51;1.17;;;0.80;;
8161;SDS011;16778;48.154;15.094;2023-04-25T07:04:17;2.07;;;1.37;;
8161;SDS011;16778;48.154;15.094;2023-04-25T07:06:42;1.43;;;0.73;;
8161;SDS011;16778;48.154;15.094;2023-04-25T07:09:08;0.73;;;0.70;;
8161;SDS011;16778;48.154;15.094;2023-04-25T07:11:37;1.13;;;0.90;;
8161;SDS011;16778;48.154;15.094;2023-04-25T07:14:03;1.43;;;1.03;;
8161;SDS011;16778;48.154;15.094;2023-04-25T07:16:29;0.97;;;0.90;;
8161;SDS011;16778;48.154;15.094;2023-04-25T07:18:54;3.70;;;0.87;;
8161;SDS011;16778;48.154;15.094;2023-04-25T07:21:20;0.40;;;0.40;;
8161;SDS011;16778;48.154;15.094;2023-04-25T07:23:46;0.73;;;0.60;;
8161;SDS011;16778;48.154;15.094;2023-04-25T07:26:12;2.10;;;1.00;;
8161;SDS011;16778;48.154;15.094;2023-04-25T07:28:38;0.50;;;0.40;;
8161;SDS011;16778;48.154;15.094;2023-04-25T07:31:03;2.30;;;0.90;;
8161;SDS011;16778;48.154;15.094;2023-04-25T07:33:30;0.63;;;0.63;;
8161;SDS011;16778;48.154;15.094;2023-04-25T07:35:55;1.00;;;0.63;;
8161;SDS011;16778;48.154;15.094;2023-04-25T07:38:21;0.53;;;0.50;;
8161;SDS011;16778;48.154;15.094;2023-04-25T07:40:47;0.83;;;0.67;;
8161;SDS011;16778;48.154;15.094;2023-04-25T07:43:13;1.30;;;0.90;;
8161;SDS011;16778;48.154;15.094;2023-04-25T07:45:41;0.97;;;0.70;;
8161;SDS011;16778;48.154;15.094;2023-04-25T07:48:07;2.20;;;1.00;;
8161;SDS011;16778;48.154;15.094;2023-04-25T07:50:33;0.63;;;0.50;;
8161;SDS011;16778;48.154;15.094;2023-04-25T07:52:59;0.37;;;0.37;;
8161;SDS011;16778;48.154;15.094;2023-04-25T07:55:25;1.47;;;1.20;;
8161;SDS011;16778;48.154;15.094;2023-04-25T07:57:51;1.27;;;0.83;;
8161;SDS011;16778;48.154;15.094;2023-04-25T08:00:16;0.53;;;0.50;;
8161;SDS011;16778;48.154;15.094;2023-04-25T08:02:42;0.20;;;0.20;;
8161;SDS011;16778;48.154;15.094;2023-04-25T08:05:08;0.30;;;0.30;;
8161;SDS011;16778;48.154;15.094;2023-04-25T08:07:37;0.63;;;0.63;;
8161;SDS011;16778;48.154;15.094;2023-04-25T08:10:04;0.60;;;0.57;;
8161;SDS011;16778;48.154;15.094;2023-04-25T08:12:31;3.00;;;0.77;;
8161;SDS011;16778;48.154;15.094;2023-04-25T08:14:56;0.60;;;0.43;;
8161;SDS011;16778;48.154;15.094;2023-04-25T08:17:22;0.67;;;0.60;;
8161;SDS011;16778;48.154;15.094;2023-04-25T08:19:47;2.00;;;1.00;;
8161;SDS011;16778;48.154;15.094;2023-04-25T08:22:14;1.27;;;0.83;;
8161;SDS011;16778;48.154;15.094;2023-04-25T08:24:39;0.43;;;0.43;;
8161;SDS011;16778;48.154;15.094;2023-04-25T08:27:06;0.43;;;0.23;;
8161;SDS011;16778;48.154;15.094;2023-04-25T08:29:32;1.27;;;1.13;;
8161;SDS011;16778;48.154;15.094;2023-04-25T08:31:58;1.03;;;0.83;;
8161;SDS011;16778;48.154;15.094;2023-04-25T08:34:24;0.30;;;0.30;;
8161;SDS011;16778;48.154;15.094;2023-04-25T08:36:50;2.37;;;1.53;;
8161;SDS011;16778;48.154;15.094;2023-04-25T08:39:16;0.77;;;0.70;;
8161;SDS011;16778;48.154;15.094;2023-04-25T08:41:42;1.07;;;0.63;;
8161;SDS011;16778;48.154;15.094;2023-04-25T08:44:10;0.70;;;0.50;;
8161;SDS011;16778;48.154;15.094;2023-04-25T08:46:37;0.97;;;0.70;;
8161;SDS011;16778;48.154;15.094;2023-04-25T08:49:04;1.53;;;0.97;;
8161;SDS011;16778;48.154;15.094;2023-04-25T08:51:32;0.60;;;0.60;;
8161;SDS011;16778;48.154;15.094;2023-04-25T08:54:11;0.60;;;0.60;;
8161;SDS011;16778;48.154;15.094;2023-04-25T08:56:38;1.00;;;0.67;;
8161;SDS011;16778;48.154;15.094;2023-04-25T08:59:04;0.70;;;0.70;;
8161;SDS011;16778;48.154;15.094;2023-04-25T09:01:32;1.90;;;1.10;;
8161;SDS011;16778;48.154;15.094;2023-04-25T09:04:02;0.97;;;0.90;;
8161;SDS011;16778;48.154;15.094;2023-04-25T09:06:30;0.70;;;0.70;;
8161;SDS011;16778;48.154;15.094;2023-04-25T09:09:03;0.53;;;0.50;;
8161;SDS011;16778;48.154;15.094;2023-04-25T09:11:30;2.17;;;0.80;;
8161;SDS011;16778;48.154;15.094;2023-04-25T09:19:22;0.60;;;0.50;;
8161;SDS011;16778;48.154;15.094;2023-04-25T09:21:49;0.90;;;0.70;;
8161;SDS011;16778;48.154;15.094;2023-04-25T09:24:15;1.00;;;0.53;;
8161;SDS011;16778;48.154;15.094;2023-04-25T09:26:40;0.67;;;0.53;;
8161;SDS011;16778;48.154;15.094;2023-04-25T09:29:06;0.50;;;0.50;;
8161;SDS011;16778;48.154;15.094;2023-04-25T09:31:33;0.60;;;0.60;;
8161;SDS011;16778;48.154;15.094;2023-04-25T09:33:59;0.23;;;0.23;;
8161;SDS011;16778;48.154;15.094;2023-04-25T09:36:29;0.20;;;0.20;;
8161;SDS011;16778;48.154;15.094;2023-04-25T09:38:55;0.83;;;0.30;;
8161;SDS011;16778;48.154;15.094;2023-04-25T09:41:24;0.47;;;0.40;;
8161;SDS011;16778;48.154;15.094;2023-04-25T09:43:50;1.73;;;0.70;;
8161;SDS011;16778;48.154;15.094;2023-04-25T09:46:15;1.53;;;1.00;;
8161;SDS011;16778;48.154;15.094;2023-04-25T09:48:52;0.77;;;0.70;;
8161;SDS011;16778;48.154;15.094;2023-04-25T09:51:18;0.70;;;0.60;;
8161;SDS011;16778;48.154;15.094;2023-04-25T09:53:45;0.30;;;0.30;;
8161;SDS011;16778;48.154;15.094;2023-04-25T09:56:11;0.50;;;0.50;;
8161;SDS011;16778;48.154;15.094;2023-04-25T09:58:38;1.20;;;0.80;;
8161;SDS011;16778;48.154;15.094;2023-04-25T10:01:14;0.50;;;0.50;;
8161;SDS011;16778;48.154;15.094;2023-04-25T10:03:41;0.73;;;0.73;;
8161;SDS011;16778;48.154;15.094;2023-04-25T10:06:17;1.20;;;0.90;;
8161;SDS011;16778;48.154;15.094;2023-04-25T10:08:44;0.27;;;0.27;;
8161;SDS011;16778;48.154;15.094;2023-04-25T10:11:10;1.33;;;0.60;;
8161;SDS011;16778;48.154;15.094;2023-04-25T10:13:39;0.50;;;0.50;;
8161;SDS011;16778;48.154;15.094;2023-04-25T10:16:05;0.60;;;0.37;;
8161;SDS011;16778;48.154;15.094;2023-04-25T10:18:31;0.60;;;0.57;;
8161;SDS011;16778;48.154;15.094;2023-04-25T10:20:58;0.30;;;0.30;;
8161;SDS011;16778;48.154;15.094;2023-04-25T10:23:26;0.70;;;0.70;;
8161;SDS011;16778;48.154;15.094;2023-04-25T10:25:52;0.80;;;0.50;;
8161;SDS011;16778;48.154;15.094;2023-04-25T10:28:18;1.23;;;0.50;;
8161;SDS011;16778;48.154;15.094;2023-04-25T10:31:01;1.13;;;0.57;;
8161;SDS011;16778;48.154;15.094;2023-04-25T10:33:37;0.50;;;0.40;;
8161;SDS011;16778;48.154;15.094;2023-04-25T10:36:17;0.50;;;0.50;;
8161;SDS011;16778;48.154;15.094;2023-04-25T10:38:44;0.50;;;0.50;;
8161;SDS011;16778;48.154;15.094;2023-04-25T10:41:11;0.47;;;0.47;;
8161;SDS011;16778;48.154;15.094;2023-04-25T10:43:41;5.57;;;0.50;;
8161;SDS011;16778;48.154;15.094;2023-04-25T10:48:55;0.60;;;0.60;;
8161;SDS011;16778;48.154;15.094;2023-04-25T10:51:31;1.97;;;0.87;;
8161;SDS011;16778;48.154;15.094;2023-04-25T10:53:58;0.87;;;0.63;;
8161;SDS011;16778;48.154;15.094;2023-04-25T10:56:29;0.40;;;0.40;;
8161;SDS011;16778;48.154;15.094;2023-04-25T11:01:44;1.40;;;0.90;;
8161;SDS011;16778;48.154;15.094;2023-04-25T11:04:24;1.00;;;0.90;;
8161;SDS011;16778;48.154;15.094;2023-04-25T11:09:48;1.00;;;0.90;;
8161;SDS011;16778;48.154;15.094;2023-04-25T11:12:14;0.63;;;0.63;;
8161;SDS011;16778;48.154;15.094;2023-04-25T11:14:41;0.80;;;0.60;;
8161;SDS011;16778;48.154;15.094;2023-04-25T11:17:07;1.10;;;0.90;;
8161;SDS011;16778;48.154;15.094;2023-04-25T11:19:32;0.73;;;0.60;;
8161;SDS011;16778;48.154;15.094;2023-04-25T11:21:59;0.60;;;0.60;;
8161;SDS011;16778;48.154;15.094;2023-04-25T11:24:28;1.37;;;0.80;;
8161;SDS011;16778;48.154;15.094;2023-04-25T11:26:59;0.67;;;0.60;;
8161;SDS011;16778;48.154;15.094;2023-04-25T11:29:27;1.23;;;0.73;;
8161;SDS011;16778;48.154;15.094;2023-04-25T11:31:54;0.70;;;0.70;;
8161;SDS011;16778;48.154;15.094;2023-04-25T11:34:22;1.50;;;0.70;;
8161;SDS011;16778;48.154;15.094;2023-04-25T11:36:49;0.93;;;0.83;;
8161;SDS011;16778;48.154;15.094;2023-04-25T11:39:17;0.53;;;0.33;;
8161;SDS011;16778;48.154;15.094;2023-04-25T11:41:43;1.97;;;0.53;;
8161;SDS011;16778;48.154;15.094;2023-04-25T11:44:09;0.40;;;0.30;;
8161;SDS011;16778;48.154;15.094;2023-04-25T11:46:35;0.33;;;0.33;;
8161;SDS011;16778;48.154;15.094;2023-04-25T11:49:00;0.10;;;0.10;;
8161;SDS011;16778;48.154;15.094;2023-04-25T11:51:26;1.77;;;0.70;;
8161;SDS011;16778;48.154;15.094;2023-04-25T11:53:52;0.20;;;0.20;;
8161;SDS011;16778;48.154;15.094;2023-04-25T11:56:18;2.23;;;0.53;;
8161;SDS011;16778;48.154;15.094;2023-04-25T11:59:17;0.27;;;0.20;;
8161;SDS011;16778;48.154;15.094;2023-04-25T12:01:36;0.00;;;0.00;;
8161;SDS011;16778;48.154;15.094;2023-04-25T12:04:13;0.20;;;0.20;;
8161;SDS011;16778;48.154;15.094;2023-04-25T12:06:40;0.00;;;0.00;;
8161;SDS011;16778;48.154;15.094;2023-04-25T12:09:08;1.40;;;0.97;;
8161;SDS011;16778;48.154;15.094;2023-04-25T12:11:42;0.20;;;0.20;;
8161;SDS011;16778;48.154;15.094;2023-04-25T12:14:08;0.20;;;0.20;;
8161;SDS011;16778;48.154;15.094;2023-04-25T12:16:42;0.10;;;0.10;;
8161;SDS011;16778;48.154;15.094;2023-04-25T12:19:09;0.00;;;0.00;;
8161;SDS011;16778;48.154;15.094;2023-04-25T12:21:35;0.00;;;0.00;;
8161;SDS011;16778;48.154;15.094;2023-04-25T12:24:13;0.20;;;0.17;;
8161;SDS011;16778;48.154;15.094;2023-04-25T12:26:54;0.10;;;0.10;;
8161;SDS011;16778;48.154;15.094;2023-04-25T12:29:24;0.20;;;0.20;;
8161;SDS011;16778;48.154;15.094;2023-04-25T12:31:51;0.47;;;0.47;;
8161;SDS011;16778;48.154;15.094;2023-04-25T12:34:18;0.10;;;0.10;;
8161;SDS011;16778;48.154;15.094;2023-04-25T12:36:44;0.30;;;0.30;;
8161;SDS011;16778;48.154;15.094;2023-04-25T12:39:23;0.40;;;0.30;;
8161;SDS011;16778;48.154;15.094;2023-04-25T12:41:50;0.07;;;0.00;;
8161;SDS011;16778;48.154;15.094;2023-04-25T12:44:17;0.20;;;0.20;;
8161;SDS011;16778;48.154;15.094;2023-04-25T12:46:42;0.20;;;0.20;;
8161;SDS011;16778;48.154;15.094;2023-04-25T12:49:08;0.27;;;0.23;;
8161;SDS011;16778;48.154;15.094;2023-04-25T12:51:34;0.83;;;0.83;;
8161;SDS011;16778;48.154;15.094;2023-04-25T12:54:01;0.10;;;0.10;;
8161;SDS011;16778;48.154;15.094;2023-04-25T12:56:27;0.50;;;0.30;;
8161;SDS011;16778;48.154;15.094;2023-04-25T12:58:53;0.20;;;0.20;;
8161;SDS011;16778;48.154;15.094;2023-04-25T13:01:20;0.20;;;0.10;;
8161;SDS011;16778;48.154;15.094;2023-04-25T13:03:46;0.87;;;0.23;;
8161;SDS011;16778;48.154;15.094;2023-04-25T13:06:13;0.50;;;0.30;;
8161;SDS011;16778;48.154;15.094;2023-04-25T13:08:39;0.10;;;0.10;;
8161;SDS011;16778;48.154;15.094;2023-04-25T13:11:05;1.13;;;0.40;;
8161;SDS011;16778;48.154;15.094;2023-04-25T13:13:31;0.33;;;0.27;;
8161;SDS011;16778;48.154;15.094;2023-04-25T13:15:57;0.10;;;0.10;;
8161;SDS011;16778;48.154;15.094;2023-04-25T13:18:23;0.10;;;0.10;;
8161;SDS011;16778;48.154;15.094;2023-04-25T13:20:51;0.10;;;0.10;;
8161;SDS011;16778;48.154;15.094;2023-04-25T13:23:18;0.60;;;0.37;;
8161;SDS011;16778;48.154;15.094;2023-04-25T13:25:44;0.10;;;0.10;;
8161;SDS011;16778;48.154;15.094;2023-04-25T13:28:10;0.20;;;0.20;;
8161;SDS011;16778;48.154;15.094;2023-04-25T13:30:36;0.33;;;0.33;;
8161;SDS011;16778;48.154;15.094;2023-04-25T13:33:02;0.10;;;0.10;;
8161;SDS011;16778;48.154;15.094;2023-04-25T13:35:31;0.10;;;0.10;;
8161;SDS011;16778;48.154;15.094;2023-04-25T13:37:58;0.10;;;0.00;;
8161;SDS011;16778;48.154;15.094;2023-04-25T13:40:23;0.43;;;0.43;;
8161;SDS011;16778;48.154;15.094;2023-04-25T13:42:49;0.23;;;0.20;;
8161;SDS011;16778;48.154;15.094;2023-04-25T13:45:16;0.20;;;0.20;;
8161;SDS011;16778;48.154;15.094;2023-04-25T13:47:41;0.30;;;0.30;;
8161;SDS011;16778;48.154;15.094;2023-04-25T13:50:07;0.43;;;0.20;;
8161;SDS011;16778;48.154;15.094;2023-04-25T13:52:33;0.10;;;0.10;;
8161;SDS011;16778;48.154;15.094;2023-04-25T13:54:59;0.30;;;0.30;;
8161;SDS011;16778;48.154;15.094;2023-04-25T13:57:25;0.40;;;0.40;;
8161;SDS011;16778;48.154;15.094;2023-04-25T13:59:50;0.40;;;0.40;;
8161;SDS011;16778;48.154;15.094;2023-04-25T14:02:16;0.40;;;0.40;;
8161;SDS011;16778;48.154;15.094;2023-04-25T14:04:42;2.03;;;0.30;;
8161;SDS011;16778;48.154;15.094;2023-04-25T14:07:08;0.40;;;0.40;;
8161;SDS011;16778;48.154;15.094;2023-04-25T14:09:35;0.87;;;0.33;;
8161;SDS011;16778;48.154;15.094;2023-04-25T14:12:01;0.23;;;0.20;;
8161;SDS011;16778;48.154;15.094;2023-04-25T14:14:27;0.20;;;0.20;;
8161;SDS011;16778;48.154;15.094;2023-04-25T14:16:53;0.00;;;0.00;;
8161;SDS011;16778;48.154;15.094;2023-04-25T14:19:19;0.10;;;0.10;;
8161;SDS011;16778;48.154;15.094;2023-04-25T14:21:45;0.20;;;0.20;;
8161;SDS011;16778;48.154;15.094;2023-04-25T14:24:11;0.20;;;0.20;;
8161;SDS011;16778;48.154;15.094;2023-04-25T14:26:38;0.30;;;0.30;;
8161;SDS011;16778;48.154;15.094;2023-04-25T14:29:04;0.20;;;0.20;;
8161;SDS011;16778;48.154;15.094;2023-04-25T14:31:31;0.20;;;0.20;;
8161;SDS011;16778;48.154;15.094;2023-04-25T14:33:57;0.10;;;0.10;;
8161;SDS011;16778;48.154;15.094;2023-04-25T14:36:23;0.27;;;0.27;;
8161;SDS011;16778;48.154;15.094;2023-04-25T14:38:49;0.10;;;0.10;;
8161;SDS011;16778;48.154;15.094;2023-04-25T14:41:14;0.30;;;0.30;;
8161;SDS011;16778;48.154;15.094;2023-04-25T14:43:40;0.20;;;0.20;;
8161;SDS011;16778;48.154;15.094;2023-04-25T14:46:06;0.30;;;0.30;;
8161;SDS011;16778;48.154;15.094;2023-04-25T14:48:32;0.30;;;0.20;;
8161;SDS011;16778;48.154;15.094;2023-04-25T14:50:58;0.40;;;0.40;;
8161;SDS011;16778;48.154;15.094;2023-04-25T14:53:25;0.30;;;0.30;;
8161;SDS011;16778;48.154;15.094;2023-04-25T14:55:51;0.20;;;0.20;;
8161;SDS011;16778;48.154;15.094;2023-04-25T14:58:18;0.10;;;0.10;;